createdAt,value
2019-02-20T00:02:18.271Z,16.05
2019-02-20T00:04:48.178Z,15.65
2019-02-20T00:07:17.913Z,15.60
2019-02-20T00:09:47.804Z,14.80
2019-02-20T00:12:17.696Z,14.50
2019-02-20T00:14:47.424Z,15.20
2019-02-20T00:17:17.254Z,16.15
2019-02-20T00:19:47.166Z,13.78
2019-02-20T00:22:17.080Z,15.50
2019-02-20T00:24:47.052Z,15.43
2019-02-20T00:27:16.992Z,15.55
2019-02-20T00:29:46.755Z,15.70
2019-02-20T00:32:16.560Z,14.45
2019-02-20T00:34:46.359Z,13.85
2019-02-20T00:37:16.252Z,17.30
2019-02-20T00:39:45.975Z,14.43
2019-02-20T00:42:15.987Z,15.98
2019-02-20T00:45:04.737Z,14.70
2019-02-20T00:47:58.207Z,14.15
2019-02-20T00:50:29.855Z,17.45
2019-02-20T00:53:27.628Z,16.27
2019-02-20T00:55:57.455Z,15.75
2019-02-20T00:58:27.298Z,16.85
2019-02-20T01:00:57.374Z,13.53
2019-02-20T01:03:27.126Z,16.62
2019-02-20T01:05:56.902Z,15.60
2019-02-20T01:08:26.666Z,16.40
2019-02-20T01:10:56.542Z,16.55
2019-02-20T01:13:26.481Z,15.25
2019-02-20T01:15:56.299Z,12.43
2019-02-20T01:18:26.181Z,14.75
2019-02-20T01:20:56.027Z,17.20
2019-02-20T01:23:26.148Z,15.15
2019-02-20T01:25:55.952Z,17.70
2019-02-20T01:28:25.695Z,14.87
2019-02-20T01:30:55.375Z,13.10
2019-02-20T01:33:25.090Z,13.40
2019-02-20T01:35:54.726Z,15.23
2019-02-20T01:38:24.311Z,12.88
2019-02-20T01:40:53.927Z,13.18
2019-02-20T01:43:23.692Z,14.23
2019-02-20T01:45:53.350Z,15.95
2019-02-20T01:48:23.042Z,15.65
2019-02-20T01:50:52.824Z,13.78
2019-02-20T01:53:22.571Z,15.20
2019-02-20T01:55:52.282Z,19.42
2019-02-20T01:58:22.021Z,14.23
2019-02-20T02:00:51.824Z,14.20
2019-02-20T02:03:21.439Z,16.67
2019-02-20T02:05:51.238Z,17.37
2019-02-20T02:08:20.956Z,15.15
2019-02-20T02:10:50.690Z,17.10
2019-02-20T02:13:20.389Z,17.32
2019-02-20T02:15:50.193Z,16.15
2019-02-20T02:18:19.803Z,15.93
2019-02-20T02:20:49.603Z,14.98
2019-02-20T02:23:20.063Z,18.25
2019-02-20T02:25:49.862Z,16.82
2019-02-20T02:28:19.548Z,14.70
2019-02-20T02:30:49.221Z,14.95
2019-02-20T02:33:19.169Z,14.45
2019-02-20T02:35:48.970Z,16.07
2019-02-20T02:38:18.588Z,15.18
2019-02-20T02:40:48.309Z,23.05
2019-02-20T02:43:18.020Z,15.28
2019-02-20T02:45:47.642Z,14.93
2019-02-20T02:48:17.261Z,15.85
2019-02-20T02:50:47.041Z,16.67
2019-02-20T02:53:16.807Z,14.73
2019-02-20T02:55:46.472Z,15.03
2019-02-20T02:58:16.136Z,14.18
2019-02-20T03:00:45.781Z,15.85
2019-02-20T03:03:15.505Z,13.62
2019-02-20T03:05:45.265Z,15.25
2019-02-20T03:08:15.018Z,13.40
2019-02-20T03:10:44.731Z,14.70
2019-02-20T03:13:14.448Z,15.45
2019-02-20T03:15:44.062Z,16.35
2019-02-20T03:18:13.861Z,15.65
2019-02-20T03:20:43.479Z,15.13
2019-02-20T03:23:13.189Z,14.47
2019-02-20T03:25:42.836Z,15.90
2019-02-20T03:28:12.405Z,14.95
2019-02-20T03:30:42.109Z,14.93
2019-02-20T03:33:11.852Z,16.27
2019-02-20T03:35:41.530Z,14.60
2019-02-20T03:38:11.217Z,17.52
2019-02-20T03:40:40.950Z,13.03
2019-02-20T03:43:10.635Z,18.80
2019-02-20T03:45:40.389Z,14.58
2019-02-20T03:48:10.015Z,15.32
2019-02-20T03:50:39.699Z,16.73
2019-02-20T03:53:09.330Z,14.85
2019-02-20T03:55:39.121Z,13.68
2019-02-20T03:58:08.866Z,14.45
2019-02-20T04:00:38.538Z,12.63
2019-02-20T04:03:08.265Z,15.10
2019-02-20T04:05:37.884Z,15.25
2019-02-20T04:08:07.782Z,15.75
2019-02-20T04:10:37.396Z,13.18
2019-02-20T04:13:07.304Z,16.87
2019-02-20T04:15:36.939Z,13.93
2019-02-20T04:18:06.636Z,13.70
2019-02-20T04:20:36.262Z,13.95
2019-02-20T04:23:06.087Z,14.30
2019-02-20T04:25:35.564Z,13.45
2019-02-20T04:28:05.271Z,14.83
2019-02-20T04:30:34.969Z,14.70
2019-02-20T04:33:04.727Z,13.70
2019-02-20T04:35:34.386Z,13.70
2019-02-20T04:38:04.234Z,13.88
2019-02-20T04:40:34.084Z,16.12
2019-02-20T04:43:03.935Z,13.20
2019-02-20T04:45:33.646Z,15.53
2019-02-20T04:48:03.372Z,13.83
2019-02-20T04:50:32.964Z,15.32
2019-02-20T04:53:02.598Z,25.65
2019-02-20T04:55:32.278Z,13.93
2019-02-20T04:58:35.996Z,14.20
2019-02-20T05:01:05.695Z,18.02
2019-02-20T05:03:35.365Z,18.10
2019-02-20T05:06:05.146Z,20.12
2019-02-20T05:08:34.963Z,17.90
2019-02-20T05:11:04.776Z,20.25
2019-02-20T05:13:34.444Z,15.28
2019-02-20T05:16:03.966Z,17.27
2019-02-20T05:18:33.726Z,18.23
2019-02-20T05:21:03.397Z,18.32
2019-02-20T05:23:33.227Z,18.77
2019-02-20T05:26:03.666Z,18.90
2019-02-20T05:28:33.664Z,19.70
2019-02-20T05:31:04.104Z,21.97
2019-02-20T05:33:33.781Z,18.82
2019-02-20T05:36:03.430Z,25.68
2019-02-20T05:38:33.108Z,32.95
2019-02-20T05:41:02.804Z,31.75
2019-02-20T05:43:32.531Z,28.35
2019-02-20T05:46:02.239Z,27.67
2019-02-20T05:48:31.959Z,27.20
2019-02-20T05:51:01.659Z,23.47
2019-02-20T05:53:31.405Z,26.35
2019-02-20T05:56:01.117Z,21.70
2019-02-20T05:58:30.720Z,25.43
2019-02-20T06:01:00.342Z,20.45
2019-02-20T06:03:29.957Z,23.95
2019-02-20T06:05:59.630Z,19.80
2019-02-20T06:08:29.339Z,20.55
2019-02-20T06:10:58.951Z,21.42
2019-02-20T06:13:28.757Z,24.02
2019-02-20T06:15:58.675Z,25.20
2019-02-20T06:18:28.521Z,19.87
2019-02-20T06:20:58.108Z,24.98
2019-02-20T06:23:27.923Z,23.65
2019-02-20T06:25:57.629Z,23.60
2019-02-20T06:28:27.363Z,27.90
2019-02-20T06:30:57.013Z,24.50
2019-02-20T06:33:26.675Z,25.25
2019-02-20T06:35:56.364Z,25.72
2019-02-20T06:38:26.102Z,24.10
2019-02-20T06:40:55.797Z,24.02
2019-02-20T06:43:25.347Z,24.25
2019-02-20T06:45:55.132Z,20.40
2019-02-20T06:48:24.770Z,22.55
2019-02-20T06:50:54.617Z,21.17
2019-02-20T06:53:24.394Z,23.20
2019-02-20T06:55:54.239Z,24.82
2019-02-20T06:58:23.993Z,21.70
2019-02-20T07:00:53.670Z,26.45
2019-02-20T07:03:23.305Z,22.90
2019-02-20T07:06:30.807Z,24.52
2019-02-20T07:09:56.296Z,19.98
2019-02-20T07:12:50.202Z,21.15
2019-02-20T07:15:48.354Z,19.98
2019-02-20T07:18:46.128Z,20.02
2019-02-20T07:21:51.874Z,21.52
2019-02-20T07:24:49.340Z,24.85
2019-02-20T07:28:01.212Z,27.55
2019-02-20T07:30:31.052Z,26.48
2019-02-20T07:33:00.780Z,19.82
2019-02-20T07:35:30.479Z,20.72
2019-02-20T07:38:00.212Z,26.40
2019-02-20T07:40:29.925Z,22.42
2019-02-20T07:43:00.267Z,21.70
2019-02-20T07:45:29.978Z,21.55
2019-02-20T07:47:59.744Z,23.62
2019-02-20T07:50:29.496Z,24.15
2019-02-20T07:52:59.100Z,24.43
2019-02-20T07:55:29.088Z,22.90
2019-02-20T07:57:59.747Z,28.17
2019-02-20T08:00:29.438Z,22.85
2019-02-20T08:02:59.184Z,22.32
2019-02-20T08:05:28.945Z,23.00
2019-02-20T08:07:58.407Z,27.35
2019-02-20T08:10:28.008Z,29.30
2019-02-20T08:12:57.670Z,27.93
2019-02-20T08:15:27.309Z,26.52
2019-02-20T08:17:56.999Z,35.50
2019-02-20T08:20:26.725Z,25.30
2019-02-20T08:22:56.417Z,28.62
2019-02-20T08:25:26.165Z,24.10
2019-02-20T08:27:55.750Z,23.92
2019-02-20T08:30:25.518Z,23.62
2019-02-20T08:32:55.180Z,23.95
2019-02-20T08:35:25.820Z,26.12
2019-02-20T08:37:55.597Z,32.53
2019-02-20T08:40:25.309Z,26.73
2019-02-20T08:42:55.119Z,24.92
2019-02-20T08:45:24.799Z,24.65
2019-02-20T08:47:54.451Z,26.02
2019-02-20T08:50:24.039Z,22.45
2019-02-20T08:52:53.817Z,22.85
2019-02-20T08:55:31.547Z,25.72
2019-02-20T08:57:54.946Z,22.93
2019-02-20T09:00:24.663Z,22.58
2019-02-20T09:02:54.349Z,22.93
2019-02-20T09:05:23.980Z,22.32
2019-02-20T09:07:53.661Z,23.07
2019-02-20T09:10:23.487Z,21.45
2019-02-20T09:12:53.199Z,22.20
2019-02-20T09:15:22.826Z,21.73
2019-02-20T09:17:52.574Z,22.75
2019-02-20T09:20:22.222Z,22.48
2019-02-20T09:22:51.965Z,22.42
2019-02-20T09:25:21.703Z,19.20
2019-02-20T09:27:51.341Z,21.02
2019-02-20T09:30:28.351Z,24.07
2019-02-20T09:32:52.620Z,21.80
2019-02-20T09:35:22.333Z,24.77
2019-02-20T09:37:51.966Z,24.15
2019-02-20T09:40:21.691Z,23.62
2019-02-20T09:42:51.375Z,20.97
2019-02-20T09:45:21.088Z,21.80
2019-02-20T09:47:50.795Z,19.42
2019-02-20T09:50:20.496Z,24.47
2019-02-20T09:52:52.690Z,21.62
2019-02-20T09:55:21.752Z,25.75
2019-02-20T09:57:51.395Z,23.95
2019-02-20T10:00:21.467Z,24.95
2019-02-20T10:02:52.418Z,27.40
2019-02-20T10:05:22.192Z,24.45
2019-02-20T10:07:51.944Z,24.40
2019-02-20T10:10:21.677Z,28.67
2019-02-20T10:12:51.377Z,26.55
2019-02-20T10:15:21.013Z,31.05
2019-02-20T10:17:49.507Z,26.62
2019-02-20T10:20:19.191Z,31.48
2019-02-20T10:22:48.879Z,27.07
2019-02-20T10:25:18.567Z,26.73
2019-02-20T10:27:48.399Z,25.90
2019-02-20T10:30:16.920Z,23.85
2019-02-20T10:32:46.531Z,28.83
2019-02-20T10:35:16.302Z,24.12
2019-02-20T10:37:46.035Z,28.42
2019-02-20T10:40:15.727Z,23.32
2019-02-20T10:42:45.449Z,19.57
2019-02-20T10:45:15.164Z,24.07
2019-02-20T10:47:44.866Z,23.83
2019-02-20T10:50:14.906Z,22.07
2019-02-20T10:52:44.638Z,23.73
2019-02-20T10:55:14.227Z,22.60
2019-02-20T10:57:43.933Z,29.18
2019-02-20T11:00:24.231Z,24.23
2019-02-20T11:02:53.186Z,20.23
2019-02-20T11:05:23.003Z,26.20
2019-02-20T11:07:52.615Z,30.70
2019-02-20T11:10:24.017Z,27.02
2019-02-20T11:12:53.973Z,24.60
2019-02-20T11:15:23.896Z,38.05
2019-02-20T11:17:53.497Z,29.98
2019-02-20T11:20:23.197Z,29.42
2019-02-20T11:22:52.934Z,24.65
2019-02-20T11:25:22.640Z,22.55
2019-02-20T11:27:52.250Z,26.37
2019-02-20T11:30:22.087Z,25.45
2019-02-20T11:32:51.777Z,23.60
2019-02-20T11:35:21.483Z,22.75
2019-02-20T11:37:51.207Z,25.45
2019-02-20T11:40:20.794Z,21.40
2019-02-20T11:42:50.498Z,27.73
2019-02-20T11:45:20.128Z,21.75
2019-02-20T11:47:49.813Z,19.50
2019-02-20T11:50:19.431Z,20.95
2019-02-20T11:52:49.139Z,19.98
2019-02-20T11:55:18.831Z,19.62
2019-02-20T11:57:48.471Z,19.05
2019-02-20T12:00:18.259Z,23.25
2019-02-20T12:02:47.935Z,20.43
2019-02-20T12:05:17.604Z,17.52
2019-02-20T12:07:47.222Z,16.50
2019-02-20T12:10:18.133Z,18.20
2019-02-20T12:12:47.947Z,17.52
2019-02-20T12:15:17.568Z,20.57
2019-02-20T12:17:47.371Z,21.40
2019-02-20T12:20:17.000Z,17.48
2019-02-20T12:22:46.848Z,20.08
2019-02-20T12:25:16.632Z,20.50
2019-02-20T12:27:46.350Z,20.08
2019-02-20T12:30:15.924Z,19.35
2019-02-20T12:32:45.624Z,17.82
2019-02-20T12:35:15.349Z,16.23
2019-02-20T12:37:44.973Z,19.02
2019-02-20T12:40:14.656Z,15.10
2019-02-20T12:42:44.287Z,17.52
2019-02-20T12:45:14.075Z,17.30
2019-02-20T12:47:44.981Z,18.07
2019-02-20T12:50:14.662Z,16.90
2019-02-20T12:52:44.456Z,17.65
2019-02-20T12:55:15.539Z,20.10
2019-02-20T12:57:45.491Z,16.12
2019-02-20T13:00:17.039Z,17.00
2019-02-20T13:02:46.871Z,16.50
2019-02-20T13:05:16.874Z,16.00
2019-02-20T13:07:47.125Z,16.60
2019-02-20T13:10:16.863Z,15.70
2019-02-20T13:12:46.891Z,18.65
2019-02-20T13:15:16.644Z,15.48
2019-02-20T13:17:46.383Z,15.28
2019-02-20T13:20:16.093Z,13.70
2019-02-20T13:22:45.801Z,18.12
2019-02-20T13:25:15.595Z,14.05
2019-02-20T13:27:45.232Z,16.60
2019-02-20T13:30:15.020Z,15.85
2019-02-20T13:32:44.770Z,13.98
2019-02-20T13:35:14.544Z,16.05
2019-02-20T13:37:44.287Z,15.85
2019-02-20T13:40:13.979Z,14.80
2019-02-20T13:42:44.601Z,14.93
2019-02-20T13:45:14.348Z,16.62
2019-02-20T13:47:44.050Z,17.75
2019-02-20T13:50:14.306Z,14.87
2019-02-20T13:52:52.008Z,15.48
2019-02-20T13:55:16.069Z,22.77
2019-02-20T13:57:45.783Z,18.02
2019-02-20T14:00:15.435Z,17.02
2019-02-20T14:02:45.102Z,15.75
2019-02-20T14:05:14.957Z,15.90
2019-02-20T14:07:45.724Z,17.27
2019-02-20T14:10:15.320Z,16.45
2019-02-20T14:12:45.156Z,16.85
2019-02-20T14:15:17.539Z,15.48
2019-02-20T14:17:47.441Z,16.07
2019-02-20T14:20:17.109Z,19.70
2019-02-20T14:22:46.717Z,19.07
2019-02-20T14:25:16.436Z,14.23
2019-02-20T14:27:46.062Z,25.43
2019-02-20T14:30:15.753Z,17.57
2019-02-20T14:32:45.435Z,16.42
2019-02-20T14:35:15.396Z,13.72
2019-02-20T14:37:45.033Z,16.77
2019-02-20T14:40:14.731Z,16.00
2019-02-20T14:42:44.420Z,18.17
2019-02-20T14:45:14.123Z,16.80
2019-02-20T14:47:43.836Z,15.43
2019-02-20T14:50:13.465Z,16.23
2019-02-20T14:52:43.402Z,18.87
2019-02-20T14:55:13.105Z,14.95
2019-02-20T14:57:42.780Z,15.70
2019-02-20T15:00:13.044Z,14.90
2019-02-20T15:02:42.780Z,14.95
2019-02-20T15:05:12.542Z,13.78
2019-02-20T15:07:42.234Z,15.65
2019-02-20T15:10:11.871Z,15.70
2019-02-20T15:12:41.565Z,17.35
2019-02-20T15:15:11.201Z,15.05
2019-02-20T15:17:40.986Z,14.15
2019-02-20T15:20:11.518Z,14.25
2019-02-20T15:22:41.153Z,13.38
2019-02-20T15:25:10.922Z,15.53
2019-02-20T15:27:40.676Z,12.70
2019-02-20T15:30:12.529Z,13.60
2019-02-20T15:32:42.727Z,12.70
2019-02-20T15:35:12.359Z,13.22
2019-02-20T15:37:42.071Z,16.27
2019-02-20T15:40:11.755Z,12.30
2019-02-20T15:42:41.515Z,14.68
2019-02-20T15:45:11.280Z,11.43
2019-02-20T15:47:40.992Z,15.25
2019-02-20T15:50:11.593Z,12.37
2019-02-20T15:52:41.371Z,18.05
2019-02-20T15:55:11.521Z,14.63
2019-02-20T15:57:41.315Z,12.82
2019-02-20T16:00:12.577Z,12.63
2019-02-20T16:02:42.406Z,12.55
2019-02-20T16:05:12.561Z,13.62
2019-02-20T16:07:42.260Z,17.90
2019-02-20T16:10:11.892Z,11.83
2019-02-20T16:12:43.053Z,13.75
2019-02-20T16:15:14.595Z,16.00
2019-02-20T16:17:44.945Z,14.00
2019-02-20T16:20:15.029Z,14.18
2019-02-20T16:22:44.790Z,16.62
2019-02-20T16:25:14.846Z,14.18
2019-02-20T16:27:47.317Z,13.50
2019-02-20T16:30:16.019Z,15.13
2019-02-20T16:32:45.654Z,20.27
2019-02-20T16:35:15.635Z,14.73
2019-02-20T16:37:45.276Z,16.73
2019-02-20T16:40:14.853Z,13.83
2019-02-20T16:42:44.522Z,22.20
2019-02-20T16:45:24.360Z,15.80
2019-02-20T16:47:54.355Z,13.30
2019-02-20T16:50:24.071Z,19.23
2019-02-20T16:52:53.804Z,15.95
2019-02-20T16:55:23.503Z,16.25
2019-02-20T16:57:56.731Z,17.23
2019-02-20T17:00:24.613Z,25.72
2019-02-20T17:02:54.750Z,14.90
2019-02-20T17:05:24.589Z,19.55
2019-02-20T17:07:54.476Z,16.70
2019-02-20T17:10:24.210Z,13.38
2019-02-20T17:12:54.012Z,19.12
2019-02-20T17:15:23.597Z,14.05
2019-02-20T17:17:53.516Z,16.57
2019-02-20T17:20:23.263Z,15.13
2019-02-20T17:22:52.990Z,15.15
2019-02-20T17:25:22.648Z,17.42
2019-02-20T17:27:52.368Z,17.70
2019-02-20T17:30:21.995Z,17.50
2019-02-20T17:32:51.895Z,14.07
2019-02-20T17:35:21.577Z,11.93
2019-02-20T17:37:51.307Z,17.20
2019-02-20T17:40:21.005Z,15.93
2019-02-20T17:42:50.657Z,16.15
2019-02-20T17:45:20.576Z,15.75
2019-02-20T17:47:50.160Z,16.90
2019-02-20T17:50:19.791Z,14.03
2019-02-20T17:52:49.613Z,15.78
2019-02-20T17:55:19.392Z,12.13
2019-02-20T17:57:49.140Z,14.75
2019-02-20T18:00:20.033Z,15.50
2019-02-20T18:02:49.761Z,17.80
2019-02-20T18:05:19.381Z,13.53
2019-02-20T18:07:51.850Z,12.55
2019-02-20T18:10:20.330Z,16.30
2019-02-20T18:12:50.031Z,12.33
2019-02-20T18:15:19.668Z,18.45
2019-02-20T18:17:49.411Z,16.05
2019-02-20T18:20:19.173Z,16.48
2019-02-20T18:22:49.073Z,20.20
2019-02-20T18:25:18.762Z,15.55
2019-02-20T18:27:48.603Z,16.00
2019-02-20T18:30:18.089Z,15.28
2019-02-20T18:32:47.875Z,16.00
2019-02-20T18:35:17.653Z,18.52
2019-02-20T18:37:47.275Z,17.55
2019-02-20T18:40:17.039Z,18.45
2019-02-20T18:42:46.868Z,18.62
2019-02-20T18:45:16.587Z,17.35
2019-02-20T18:47:46.258Z,19.45
2019-02-20T18:50:16.053Z,14.35
2019-02-20T18:52:45.960Z,17.00
2019-02-20T18:55:15.640Z,12.93
2019-02-20T18:57:45.381Z,17.57
2019-02-20T19:00:15.775Z,19.12
2019-02-20T19:02:45.501Z,21.10
2019-02-20T19:05:15.298Z,15.93
2019-02-20T19:07:44.942Z,15.08
2019-02-20T19:10:18.310Z,16.70
2019-02-20T19:13:29.756Z,16.75
2019-02-20T19:16:14.666Z,14.10
2019-02-20T19:19:08.446Z,14.85
2019-02-20T19:22:27.606Z,19.32
2019-02-20T19:25:42.694Z,19.75
2019-02-20T19:28:56.281Z,15.75
2019-02-20T19:32:17.878Z,14.80
2019-02-20T19:35:20.288Z,15.23
2019-02-20T19:38:22.897Z,14.80
2019-02-20T19:41:54.961Z,17.65
2019-02-20T19:44:56.832Z,17.27
2019-02-20T19:48:15.634Z,13.50
2019-02-20T19:51:21.927Z,15.58
2019-02-20T19:54:18.311Z,12.98
2019-02-20T19:57:22.784Z,17.57
2019-02-20T20:00:14.985Z,16.55
2019-02-20T20:03:08.373Z,14.90
2019-02-20T20:06:18.709Z,14.07
2019-02-20T20:09:10.425Z,19.27
2019-02-20T20:12:14.664Z,14.38
2019-02-20T20:15:24.002Z,16.45
2019-02-20T20:18:37.403Z,14.03
2019-02-20T20:22:05.741Z,20.37
2019-02-20T20:24:57.135Z,15.72
2019-02-20T20:28:02.421Z,14.45
2019-02-20T20:31:20.966Z,15.65
2019-02-20T20:34:33.162Z,18.00
2019-02-20T20:37:15.607Z,13.95
2019-02-20T20:40:38.102Z,16.45
2019-02-20T20:43:57.787Z,13.83
2019-02-20T20:47:20.373Z,14.28
2019-02-20T20:50:15.434Z,16.60
2019-02-20T20:53:28.041Z,15.13
2019-02-20T20:56:29.821Z,14.40
2019-02-20T20:59:46.126Z,13.58
2019-02-20T21:02:29.159Z,12.28
2019-02-20T21:05:50.747Z,12.30
2019-02-20T21:08:54.072Z,19.02
2019-02-20T21:11:55.102Z,13.13
2019-02-20T21:15:11.629Z,12.07
2019-02-20T21:18:15.358Z,13.40
2019-02-20T21:21:14.324Z,13.98
2019-02-20T21:24:15.506Z,15.65
2019-02-20T21:27:12.219Z,13.08
2019-02-20T21:30:25.568Z,13.60
2019-02-20T21:33:35.940Z,10.70
2019-02-20T21:36:12.232Z,16.77
2019-02-20T21:39:08.013Z,14.63
2019-02-20T21:41:58.804Z,13.43
2019-02-20T21:44:57.233Z,11.97
2019-02-20T21:47:45.856Z,12.05
2019-02-20T21:50:29.496Z,13.43
2019-02-20T21:53:25.002Z,13.45
2019-02-20T21:56:28.103Z,11.97
2019-02-20T21:59:50.448Z,13.50
2019-02-20T22:02:53.067Z,13.00
2019-02-20T22:06:08.216Z,13.40
2019-02-20T22:09:04.504Z,11.88
2019-02-20T22:11:55.376Z,11.05
2019-02-20T22:14:52.716Z,13.78
2019-02-20T22:17:48.119Z,11.48
2019-02-20T22:20:53.169Z,13.45
2019-02-20T22:23:58.204Z,13.48
2019-02-20T22:27:06.718Z,11.97
2019-02-20T22:30:08.580Z,11.73
2019-02-20T22:33:03.996Z,12.18
2019-02-20T22:36:10.374Z,12.73
2019-02-20T22:39:13.133Z,12.15
2019-02-20T22:42:38.680Z,12.63
2019-02-20T22:45:33.665Z,11.85
2019-02-20T22:48:31.773Z,14.55
2019-02-20T22:51:54.007Z,11.25
2019-02-20T22:55:11.648Z,16.32
2019-02-20T22:58:19.436Z,12.23
2019-02-20T23:01:35.946Z,11.95
2019-02-20T23:04:20.305Z,10.25
2019-02-20T23:07:04.199Z,14.10
2019-02-20T23:09:52.821Z,14.03
2019-02-20T23:13:05.869Z,14.00
2019-02-20T23:15:35.537Z,10.45
2019-02-20T23:18:05.238Z,11.85
2019-02-20T23:20:34.959Z,9.00
2019-02-20T23:23:04.592Z,11.25
2019-02-20T23:25:34.279Z,13.70
2019-02-20T23:28:03.921Z,10.50
2019-02-20T23:30:33.617Z,11.97
2019-02-20T23:33:03.233Z,10.65
2019-02-20T23:35:32.955Z,10.98
2019-02-20T23:38:02.618Z,10.63
2019-02-20T23:40:32.342Z,9.85
2019-02-20T23:43:02.062Z,10.40
2019-02-20T23:45:31.680Z,11.38
2019-02-20T23:48:01.365Z,10.60
2019-02-20T23:50:31.102Z,11.53
2019-02-20T23:53:00.796Z,9.95
2019-02-20T23:55:30.495Z,12.65
2019-02-20T23:58:00.213Z,11.53
